createdAt,value
2017-09-14T00:01:12.421Z,91.3
2017-09-14T00:02:12.422Z,91.5
2017-09-14T00:03:12.446Z,91.4
2017-09-14T00:04:12.466Z,91.4
2017-09-14T00:05:12.488Z,91.88
2017-09-14T00:06:12.515Z,91.97
2017-09-14T00:07:12.529Z,91.5
2017-09-14T00:09:27.195Z,91.78
2017-09-14T00:10:12.641Z,91.69
2017-09-14T00:11:12.626Z,91.59
2017-09-14T00:12:12.643Z,91.5
2017-09-14T00:13:12.671Z,91.5
2017-09-14T00:14:12.693Z,92.02
2017-09-14T00:15:12.715Z,91.88
2017-09-14T00:16:12.728Z,90.73
2017-09-14T00:17:12.752Z,90.92
2017-09-14T00:18:12.770Z,91.11
2017-09-14T00:19:12.793Z,91.59
2017-09-14T00:20:12.823Z,91.69
2017-09-14T00:21:12.845Z,91.4
2017-09-14T00:22:12.868Z,91.69
2017-09-14T00:23:12.887Z,91.4
2017-09-14T00:24:12.915Z,92.02
2017-09-14T00:25:27.546Z,91.93
2017-09-14T00:26:12.639Z,92.02
2017-09-14T00:27:12.965Z,91.93
2017-09-14T00:28:12.987Z,91.59
2017-09-14T00:29:13.021Z,91.59
2017-09-14T00:31:13.053Z,91.21
2017-09-14T00:32:12.769Z,91.4
2017-09-14T00:33:13.097Z,91.69
2017-09-14T00:34:13.115Z,91.69
2017-09-14T00:35:13.151Z,91.69
2017-09-14T00:36:13.174Z,91.4
2017-09-14T00:37:13.192Z,91.88
2017-09-14T00:38:13.212Z,92.5
2017-09-14T00:39:13.233Z,92.6
2017-09-14T00:40:13.259Z,92.02
2017-09-14T00:41:27.889Z,92.21
2017-09-14T00:42:12.984Z,92.12
2017-09-14T00:43:13.320Z,92.31
2017-09-14T00:44:13.334Z,92.41
2017-09-14T00:45:13.363Z,92.12
2017-09-14T00:46:13.375Z,92.21
2017-09-14T00:47:13.396Z,92.41
2017-09-14T00:48:13.429Z,92.21
2017-09-14T00:49:13.443Z,92.41
2017-09-14T00:50:13.470Z,92.41
2017-09-14T00:51:13.485Z,92.6
2017-09-14T00:53:13.227Z,92.88
2017-09-14T00:54:13.549Z,92.79
2017-09-14T00:55:13.578Z,92.88
2017-09-14T00:56:28.218Z,92.88
2017-09-14T00:57:13.313Z,92.6
2017-09-14T00:58:13.646Z,93.17
2017-09-14T00:59:13.658Z,92.79
2017-09-14T01:00:13.685Z,92.97
2017-09-14T01:01:13.699Z,93.55
2017-09-14T01:02:13.721Z,93.55
2017-09-14T01:03:13.743Z,93.17
2017-09-14T01:04:13.780Z,93.84
2017-09-14T01:05:13.797Z,93.55
2017-09-14T01:06:13.808Z,93.65
2017-09-14T01:07:13.837Z,93.36
2017-09-14T01:08:13.868Z,93.46
2017-09-14T01:09:13.566Z,93.17
2017-09-14T01:10:13.895Z,93.55
2017-09-14T01:11:13.928Z,92.88
2017-09-14T01:12:13.947Z,93.36
2017-09-14T01:13:13.653Z,93.36
2017-09-14T01:14:13.982Z,93.26
2017-09-14T01:15:14.006Z,93.84
2017-09-14T01:17:14.057Z,92.41
2017-09-14T01:18:14.068Z,92.6
2017-09-14T01:19:14.140Z,92.41
2017-09-14T01:20:14.116Z,92.02
2017-09-14T01:21:14.133Z,91.97
2017-09-14T01:22:14.161Z,91.5
2017-09-14T01:23:14.174Z,91.69
2017-09-14T01:24:14.207Z,91.5
2017-09-14T01:25:14.231Z,92.16
2017-09-14T01:26:14.252Z,91.4
2017-09-14T01:27:14.268Z,91.3
2017-09-14T01:28:28.904Z,91.11
2017-09-14T01:30:14.326Z,89.87
2017-09-14T01:31:14.353Z,90.16
2017-09-14T01:32:14.380Z,90.64
2017-09-14T01:33:14.086Z,89.87
2017-09-14T01:34:14.426Z,90.25
2017-09-14T01:35:14.433Z,89.78
2017-09-14T01:36:14.458Z,89.11
2017-09-14T01:37:14.482Z,89.82
2017-09-14T01:38:14.501Z,89.39
2017-09-14T01:39:14.531Z,88.96
2017-09-14T01:40:14.555Z,88.39
2017-09-14T01:41:14.572Z,88.58
2017-09-14T01:42:14.596Z,88.87
2017-09-14T01:43:14.609Z,88.58
2017-09-14T01:44:29.253Z,88.39
2017-09-14T01:45:14.664Z,88.01
2017-09-14T01:46:14.680Z,87.72
2017-09-14T01:47:14.696Z,87.72
2017-09-14T01:48:14.726Z,87.72
2017-09-14T01:49:14.750Z,87.91
2017-09-14T01:50:14.772Z,88.2
2017-09-14T01:51:14.791Z,88.1
2017-09-14T01:52:14.802Z,88.1
2017-09-14T01:53:14.827Z,88.2
2017-09-14T01:54:14.847Z,88.29
2017-09-14T01:55:14.875Z,88.29
2017-09-14T01:56:14.899Z,88.39
2017-09-14T01:57:14.920Z,88.2
2017-09-14T01:58:14.942Z,88.39
2017-09-14T01:59:14.967Z,88.1
2017-09-14T02:00:29.599Z,88.01
2017-09-14T02:01:15.006Z,88.72
2017-09-14T02:02:15.040Z,88.58
2017-09-14T02:03:15.042Z,88.53
2017-09-14T02:04:15.064Z,89.2
2017-09-14T02:05:14.785Z,88.81
2017-09-14T02:06:15.107Z,89.1
2017-09-14T02:07:15.138Z,89.01
2017-09-14T02:08:14.844Z,88.72
2017-09-14T02:09:15.184Z,88.62
2017-09-14T02:10:15.203Z,88.72
2017-09-14T02:11:15.220Z,89.01
2017-09-14T02:12:15.241Z,88.91
2017-09-14T02:13:14.953Z,89.39
2017-09-14T02:14:14.976Z,89.1
2017-09-14T02:15:15.316Z,89.39
2017-09-14T02:16:29.946Z,89.29
2017-09-14T02:17:15.361Z,89.77
2017-09-14T02:18:15.369Z,89.77
2017-09-14T02:19:15.390Z,89.92
2017-09-14T02:20:15.424Z,90.59
2017-09-14T02:21:15.448Z,90.92
2017-09-14T02:22:15.455Z,90.68
2017-09-14T02:23:15.480Z,90.59
2017-09-14T02:24:15.502Z,91.25
2017-09-14T02:25:15.531Z,91.25
2017-09-14T02:26:15.546Z,91.25
2017-09-14T02:27:15.573Z,91.45
2017-09-14T02:28:15.589Z,91.64
2017-09-14T02:29:15.612Z,91.54
2017-09-14T02:30:15.644Z,91.64
2017-09-14T02:31:30.279Z,91.93
2017-09-14T02:32:15.689Z,91.93
2017-09-14T02:33:15.709Z,92.11
2017-09-14T02:34:15.721Z,92.11
2017-09-14T02:35:15.756Z,92.21
2017-09-14T02:36:15.775Z,92.79
2017-09-14T02:37:15.787Z,92.88
2017-09-14T02:38:15.818Z,93.07
2017-09-14T02:39:15.832Z,93.16
2017-09-14T02:41:15.892Z,93.36
2017-09-14T02:42:15.907Z,93.55
2017-09-14T02:43:15.923Z,94.12
2017-09-14T02:44:15.949Z,94.51
2017-09-14T02:45:15.967Z,94.93
2017-09-14T02:46:15.994Z,94.51
2017-09-14T02:47:16.012Z,94.7
2017-09-14T02:48:16.037Z,94.89
2017-09-14T02:49:16.050Z,94.65
2017-09-14T02:51:16.099Z,94.89
2017-09-14T02:52:16.119Z,94.98
2017-09-14T02:53:16.139Z,95.07
2017-09-14T02:54:16.157Z,94.98
2017-09-14T02:55:16.178Z,95.22
2017-09-14T02:56:16.215Z,95.32
2017-09-14T02:57:16.226Z,95.79
2017-09-14T02:58:16.246Z,96.17
2017-09-14T02:59:16.264Z,95.89
2017-09-14T03:00:15.983Z,96.17
2017-09-14T03:01:16.318Z,96.46
2017-09-14T03:02:16.023Z,96.66
2017-09-14T03:03:30.972Z,97.03
2017-09-14T03:04:16.381Z,96.94
2017-09-14T03:05:16.092Z,97.23
2017-09-14T03:06:16.115Z,96.56
2017-09-14T03:07:16.442Z,96.75
2017-09-14T03:08:16.468Z,97.71
2017-09-14T03:09:16.484Z,97.42
2017-09-14T03:11:16.527Z,98.28
2017-09-14T03:14:16.594Z,98.94
2017-09-14T03:15:16.613Z,98.94
2017-09-14T03:16:16.633Z,99.14
2017-09-14T03:17:16.669Z,99.52
2017-09-14T03:18:16.678Z,99.23
2017-09-14T03:19:31.323Z,99.8
2017-09-14T03:20:16.414Z,99.99
2017-09-14T03:21:16.742Z,99.8
2017-09-14T03:22:16.770Z,99.8
2017-09-14T03:23:16.784Z,99.99
2017-09-14T03:24:16.808Z,99.99
2017-09-14T03:25:16.831Z,99.99
2017-09-14T03:26:16.862Z,99.95
2017-09-14T03:27:16.876Z,99.99
2017-09-14T03:29:16.914Z,99.99
2017-09-14T03:30:16.941Z,99.99
2017-09-14T03:31:16.654Z,99.99
2017-09-14T03:32:16.987Z,99.99
2017-09-14T03:33:17.004Z,99.99
2017-09-14T03:34:17.037Z,99.99
2017-09-14T03:35:31.668Z,99.99
2017-09-14T03:36:17.071Z,99.99
2017-09-14T03:37:16.781Z,99.99
2017-09-14T03:38:17.114Z,99.99
2017-09-14T03:39:17.132Z,99.99
2017-09-14T03:40:16.844Z,99.99
2017-09-14T03:41:17.177Z,99.99
2017-09-14T03:42:17.257Z,99.99
2017-09-14T03:43:17.219Z,99.99
2017-09-14T03:44:17.238Z,99.99
2017-09-14T03:45:16.953Z,99.99
2017-09-14T03:46:16.976Z,99.99
2017-09-14T03:47:17.316Z,99.99
2017-09-14T03:48:17.331Z,99.99
2017-09-14T03:49:17.041Z,99.99
2017-09-14T03:50:17.427Z,99.99
2017-09-14T03:51:32.015Z,99.99
2017-09-14T03:52:17.419Z,99.99
2017-09-14T03:53:17.436Z,99.99
2017-09-14T03:54:17.465Z,99.99
2017-09-14T03:55:17.489Z,99.99
2017-09-14T03:56:17.502Z,99.99
2017-09-14T03:57:17.535Z,99.99
2017-09-14T03:59:17.564Z,99.99
2017-09-14T04:00:17.596Z,99.99
2017-09-14T04:01:17.623Z,99.99
2017-09-14T04:02:17.657Z,99.99
2017-09-14T04:03:17.651Z,99.99
2017-09-14T04:04:17.681Z,99.99
2017-09-14T04:05:17.700Z,99.99
2017-09-14T04:06:32.336Z,99.99
2017-09-14T04:07:17.746Z,99.99
2017-09-14T04:08:17.793Z,99.99
2017-09-14T04:09:17.790Z,99.99
2017-09-14T04:10:17.829Z,99.99
2017-09-14T04:11:17.821Z,99.99
2017-09-14T04:12:17.857Z,99.99
2017-09-14T04:13:17.866Z,99.99
2017-09-14T04:14:17.896Z,99.99
2017-09-14T04:15:17.919Z,99.99
2017-09-14T04:16:17.942Z,99.99
2017-09-14T04:17:17.953Z,99.99
2017-09-14T04:18:17.985Z,99.99
2017-09-14T04:19:17.995Z,99.99
2017-09-14T04:20:18.030Z,99.99
2017-09-14T04:21:18.049Z,99.99
2017-09-14T04:22:18.067Z,99.99
2017-09-14T04:23:18.092Z,99.99
2017-09-14T04:24:18.103Z,99.99
2017-09-14T04:25:18.134Z,99.99
2017-09-14T04:26:18.201Z,99.99
2017-09-14T04:27:18.182Z,99.99
2017-09-14T04:28:18.191Z,99.99
2017-09-14T04:29:18.247Z,99.99
2017-09-14T04:30:18.239Z,99.99
2017-09-14T04:31:18.255Z,99.99
2017-09-14T04:32:18.274Z,99.99
2017-09-14T04:33:18.297Z,99.99
2017-09-14T04:34:18.325Z,99.99
2017-09-14T04:35:18.340Z,99.99
2017-09-14T04:36:18.374Z,99.99
2017-09-14T04:37:18.385Z,99.99
2017-09-14T04:38:33.028Z,99.99
2017-09-14T04:39:18.428Z,99.99
2017-09-14T04:40:18.447Z,99.99
2017-09-14T04:41:18.168Z,99.99
2017-09-14T04:42:18.499Z,99.99
2017-09-14T04:43:18.520Z,99.99
2017-09-14T04:44:18.538Z,99.99
2017-09-14T04:45:18.563Z,99.99
2017-09-14T04:46:18.586Z,99.99
2017-09-14T04:47:18.600Z,99.99
2017-09-14T04:48:18.630Z,99.99
2017-09-14T04:49:18.644Z,99.99
2017-09-14T04:51:18.695Z,99.99
2017-09-14T04:52:18.719Z,99.99
2017-09-14T04:53:18.738Z,99.99
2017-09-14T04:54:33.374Z,99.99
2017-09-14T04:56:18.802Z,99.99
2017-09-14T04:57:18.823Z,99.99
2017-09-14T04:58:18.844Z,99.99
2017-09-14T04:59:18.855Z,99.99
2017-09-14T05:00:18.879Z,99.99
2017-09-14T05:01:18.907Z,99.99
2017-09-14T05:02:18.925Z,99.99
2017-09-14T05:03:18.959Z,99.99
2017-09-14T05:04:18.974Z,99.99
2017-09-14T05:05:18.990Z,99.99
2017-09-14T05:06:18.704Z,99.99
2017-09-14T05:07:19.040Z,99.99
2017-09-14T05:08:19.057Z,99.99
2017-09-14T05:09:19.080Z,99.99
2017-09-14T05:10:33.721Z,99.95
2017-09-14T05:11:19.119Z,99.85
2017-09-14T05:12:19.140Z,99.76
2017-09-14T05:13:19.164Z,99.76
2017-09-14T05:14:19.241Z,99.95
2017-09-14T05:15:19.202Z,99.76
2017-09-14T05:16:19.235Z,99.76
2017-09-14T05:17:18.946Z,99.99
2017-09-14T05:18:19.281Z,99.85
2017-09-14T05:19:19.296Z,99.66
2017-09-14T05:20:19.320Z,99.66
2017-09-14T05:21:19.344Z,99.48
2017-09-14T05:22:19.372Z,99.66
2017-09-14T05:23:19.388Z,99.76
2017-09-14T05:24:19.405Z,99.99
2017-09-14T05:25:19.427Z,99.99
2017-09-14T05:26:34.070Z,99.99
2017-09-14T05:27:19.465Z,99.99
2017-09-14T05:28:19.489Z,99.99
2017-09-14T05:29:19.522Z,99.99
2017-09-14T05:30:19.542Z,99.99
2017-09-14T05:31:19.568Z,99.99
2017-09-14T05:32:19.586Z,99.99
2017-09-14T05:33:19.599Z,99.99
2017-09-14T05:34:19.311Z,99.99
2017-09-14T05:35:19.641Z,99.99
2017-09-14T05:36:19.669Z,99.99
2017-09-14T05:37:19.689Z,99.99
2017-09-14T05:38:19.707Z,99.99
2017-09-14T05:39:19.742Z,99.99
2017-09-14T05:40:19.759Z,99.99
2017-09-14T05:41:34.396Z,99.99
2017-09-14T05:42:19.487Z,99.99
2017-09-14T05:43:19.816Z,99.99
2017-09-14T05:44:19.839Z,99.99
2017-09-14T05:45:19.861Z,99.99
2017-09-14T05:46:19.885Z,99.99
2017-09-14T05:47:19.913Z,99.99
2017-09-14T05:49:19.946Z,99.99
2017-09-14T05:50:19.659Z,99.99
2017-09-14T05:51:19.999Z,99.99
2017-09-14T05:52:20.014Z,99.99
2017-09-14T05:53:20.036Z,99.99
2017-09-14T05:54:20.065Z,99.99
2017-09-14T05:55:20.087Z,99.99
2017-09-14T05:56:20.111Z,99.99
2017-09-14T05:57:20.138Z,99.99
2017-09-14T05:58:20.150Z,99.99
2017-09-14T05:59:20.171Z,99.99
2017-09-14T06:00:20.194Z,99.99
2017-09-14T06:01:20.214Z,99.99
2017-09-14T06:02:20.232Z,99.99
2017-09-14T06:03:19.954Z,99.99
2017-09-14T06:04:20.276Z,99.99
2017-09-14T06:05:20.294Z,99.99
2017-09-14T06:06:20.010Z,99.99
2017-09-14T06:07:20.356Z,99.99
2017-09-14T06:08:20.061Z,99.99
2017-09-14T06:09:20.394Z,99.99
2017-09-14T06:10:20.100Z,99.99
2017-09-14T06:11:20.434Z,99.99
2017-09-14T06:12:20.457Z,99.99
2017-09-14T06:13:35.096Z,99.99
2017-09-14T06:14:20.505Z,99.99
2017-09-14T06:15:20.522Z,99.99
2017-09-14T06:16:20.535Z,99.99
2017-09-14T06:17:20.571Z,99.99
2017-09-14T06:18:20.583Z,99.99
2017-09-14T06:19:20.614Z,99.99
2017-09-14T06:20:20.626Z,99.99
2017-09-14T06:21:20.648Z,99.99
2017-09-14T06:22:20.668Z,99.99
2017-09-14T06:23:20.702Z,99.99
2017-09-14T06:24:20.722Z,99.99
2017-09-14T06:25:20.736Z,99.99
2017-09-14T06:26:20.767Z,99.99
2017-09-14T06:27:20.790Z,99.99
2017-09-14T06:28:20.501Z,99.99
2017-09-14T06:29:35.449Z,99.99
2017-09-14T06:30:20.543Z,99.99
2017-09-14T06:31:20.561Z,99.99
2017-09-14T06:32:20.587Z,99.99
2017-09-14T06:33:20.616Z,99.99
2017-09-14T06:35:20.648Z,99.99
2017-09-14T06:36:21.038Z,99.99
2017-09-14T06:39:21.051Z,99.62
2017-09-14T06:40:21.071Z,99.9
2017-09-14T06:41:20.786Z,99.71
2017-09-14T06:42:21.128Z,99.62
2017-09-14T06:43:21.147Z,99.9
2017-09-14T06:44:21.161Z,99.9
2017-09-14T06:45:35.856Z,99.9
2017-09-14T06:46:20.895Z,99.24
2017-09-14T06:47:21.231Z,99.24
2017-09-14T06:48:20.938Z,99.33
2017-09-14T06:49:21.272Z,99.24
2017-09-14T06:50:20.989Z,98.18
2017-09-14T06:52:21.338Z,98.18
2017-09-14T06:53:21.361Z,98.09
2017-09-14T06:54:21.382Z,98.18
2017-09-14T06:55:21.404Z,98.38
2017-09-14T06:56:21.423Z,97.71
2017-09-14T06:57:21.458Z,97.61
2017-09-14T06:58:21.486Z,96.51
2017-09-14T06:59:21.499Z,96.03
2017-09-14T07:00:21.524Z,95.27
2017-09-14T07:01:36.163Z,94.7
2017-09-14T07:02:21.251Z,94.17
2017-09-14T07:03:21.587Z,93.02
2017-09-14T07:04:21.603Z,92.44
2017-09-14T07:05:21.634Z,91.97
2017-09-14T07:06:21.658Z,91.3
2017-09-14T07:07:21.678Z,90.53
2017-09-14T07:08:21.700Z,90.05
2017-09-14T07:09:21.720Z,89.76
2017-09-14T07:10:21.747Z,90.24
2017-09-14T07:11:21.759Z,89.86
2017-09-14T07:12:21.841Z,90.15
2017-09-14T07:13:21.820Z,89.19
2017-09-14T07:14:21.835Z,89.19
2017-09-14T07:15:21.851Z,89.23
2017-09-14T07:16:36.508Z,88.18
2017-09-14T07:17:21.902Z,87.99
2017-09-14T07:18:21.919Z,88.28
2017-09-14T07:19:21.945Z,87.9
2017-09-14T07:20:21.967Z,87.8
2017-09-14T07:21:21.996Z,88.47
2017-09-14T07:22:22.027Z,87.99
2017-09-14T07:23:22.035Z,89.33
2017-09-14T07:24:22.072Z,89.04
2017-09-14T07:25:21.774Z,89.09
2017-09-14T07:26:22.123Z,89.48
2017-09-14T07:27:22.126Z,89.95
2017-09-14T07:28:22.161Z,89.67
2017-09-14T07:29:22.169Z,89.86
2017-09-14T07:30:22.205Z,90.05
2017-09-14T07:31:22.227Z,90.91
2017-09-14T07:33:22.269Z,90.63
2017-09-14T07:34:22.284Z,91.01
2017-09-14T07:35:22.318Z,91.01
2017-09-14T07:36:22.335Z,90.24
2017-09-14T07:38:22.373Z,90.29
2017-09-14T07:39:22.410Z,89.33
2017-09-14T07:41:22.451Z,87.99
2017-09-14T07:42:22.467Z,88.37
2017-09-14T07:43:22.515Z,87.13
2017-09-14T07:44:22.523Z,86.84
2017-09-14T07:45:22.543Z,87.13
2017-09-14T07:46:22.558Z,88.28
2017-09-14T07:48:37.227Z,86.98
2017-09-14T07:50:22.658Z,86.5
2017-09-14T07:52:22.756Z,85.83
2017-09-14T07:53:22.414Z,85.35
2017-09-14T07:54:22.743Z,84.2
2017-09-14T07:55:22.773Z,84.2
2017-09-14T07:56:22.790Z,84.3
2017-09-14T07:57:22.811Z,83.72
2017-09-14T07:58:22.835Z,84.11
2017-09-14T07:59:22.557Z,83.92
2017-09-14T08:00:22.890Z,84.11
2017-09-14T08:01:22.913Z,83.25
2017-09-14T08:02:22.937Z,82.76
2017-09-14T08:03:22.959Z,83.05
2017-09-14T08:04:37.595Z,83.34
2017-09-14T08:05:22.997Z,84.11
2017-09-14T08:06:23.029Z,84.11
2017-09-14T08:07:23.055Z,83.44
2017-09-14T08:08:23.088Z,84.11
2017-09-14T08:09:23.100Z,83.25
2017-09-14T08:10:23.127Z,83.34
2017-09-14T08:11:23.143Z,83.15
2017-09-14T08:12:23.167Z,81.95
2017-09-14T08:13:23.185Z,82.04
2017-09-14T08:14:23.208Z,81.75
2017-09-14T08:15:23.236Z,81.27
2017-09-14T08:16:23.254Z,81.75
2017-09-14T08:17:23.314Z,82.14
2017-09-14T08:18:22.989Z,81.75
2017-09-14T08:19:23.335Z,81.37
2017-09-14T08:20:37.965Z,81.85
2017-09-14T08:21:23.376Z,81.75
2017-09-14T08:22:23.405Z,81.75
2017-09-14T08:23:23.423Z,81.75
2017-09-14T08:24:23.441Z,81.33
2017-09-14T08:25:23.462Z,81.37
2017-09-14T08:26:23.499Z,81.37
2017-09-14T08:27:23.518Z,81.46
2017-09-14T08:28:23.545Z,81.37
2017-09-14T08:29:23.559Z,80.79
2017-09-14T08:30:23.576Z,81.08
2017-09-14T08:31:23.298Z,81.85
2017-09-14T08:32:23.626Z,81.18
2017-09-14T08:33:23.659Z,81.08
2017-09-14T08:34:23.689Z,80.99
2017-09-14T08:35:23.698Z,80.89
2017-09-14T08:36:38.342Z,81.18
2017-09-14T08:37:23.753Z,80.16
2017-09-14T08:38:23.774Z,80.45
2017-09-14T08:39:23.788Z,80.35
2017-09-14T08:40:23.815Z,79.88
2017-09-14T08:41:23.839Z,79.39
2017-09-14T08:42:23.869Z,79.78
2017-09-14T08:43:23.892Z,79.68
2017-09-14T08:44:23.916Z,79.59
2017-09-14T08:45:23.630Z,78.92
2017-09-14T08:46:23.955Z,78.67
2017-09-14T08:47:23.976Z,77.8
2017-09-14T08:48:24.017Z,77.8
2017-09-14T08:49:24.030Z,77.04
2017-09-14T08:51:38.694Z,76.59
2017-09-14T08:52:24.108Z,76.46
2017-09-14T08:53:24.126Z,75.25
2017-09-14T08:54:24.150Z,75.82
2017-09-14T08:55:24.168Z,75.06
2017-09-14T08:56:24.197Z,75.54
2017-09-14T08:58:24.240Z,74.68
2017-09-14T08:59:24.265Z,74.1
2017-09-14T09:00:24.285Z,73.81
2017-09-14T09:01:24.321Z,74.35
2017-09-14T09:02:24.340Z,74.54
2017-09-14T09:03:24.368Z,75.5
2017-09-14T09:04:24.395Z,75.02
2017-09-14T09:05:24.408Z,75.4
2017-09-14T09:06:24.431Z,75.18
2017-09-14T09:07:24.460Z,75.79
2017-09-14T09:08:24.492Z,75.56
2017-09-14T09:09:24.504Z,75.02
2017-09-14T09:10:24.528Z,75.27
2017-09-14T09:11:24.563Z,75.21
2017-09-14T09:12:24.577Z,75.12
2017-09-14T09:13:24.599Z,75.02
2017-09-14T09:14:24.632Z,75.12
2017-09-14T09:15:24.645Z,75.6
2017-09-14T09:16:24.678Z,75.21
2017-09-14T09:17:24.392Z,74.44
2017-09-14T09:18:24.715Z,75.21
2017-09-14T09:19:24.741Z,74.73
2017-09-14T09:20:24.764Z,75.21
2017-09-14T09:21:24.790Z,75.31
2017-09-14T09:22:24.811Z,74.54
2017-09-14T09:23:39.456Z,74.44
2017-09-14T09:24:24.869Z,75.37
2017-09-14T09:25:24.897Z,74.51
2017-09-14T09:26:24.907Z,75.18
2017-09-14T09:27:24.622Z,75.37
2017-09-14T09:28:24.956Z,75.31
2017-09-14T09:29:24.986Z,76.04
2017-09-14T09:30:25.004Z,75.46
2017-09-14T09:31:25.037Z,75.56
2017-09-14T09:32:25.053Z,76.04
2017-09-14T09:33:24.770Z,76.52
2017-09-14T09:34:25.106Z,76.71
2017-09-14T09:35:25.130Z,76.62
2017-09-14T09:36:25.142Z,77
2017-09-14T09:37:25.174Z,76.81
2017-09-14T09:38:25.198Z,76.62
2017-09-14T09:39:39.836Z,76.71
2017-09-14T09:40:25.255Z,77
2017-09-14T09:41:25.267Z,76.04
2017-09-14T09:42:25.286Z,76.04
2017-09-14T09:43:25.311Z,75.5
2017-09-14T09:44:25.333Z,75.21
2017-09-14T09:45:25.356Z,75.31
2017-09-14T09:46:25.077Z,75.6
2017-09-14T09:47:25.406Z,76.07
2017-09-14T09:48:25.429Z,76.71
2017-09-14T09:49:25.475Z,76.52
2017-09-14T09:50:25.485Z,77.19
2017-09-14T09:51:25.511Z,77.71
2017-09-14T09:52:25.524Z,77
2017-09-14T09:53:25.561Z,78.15
2017-09-14T09:54:25.578Z,78.05
2017-09-14T09:55:40.213Z,78.78
2017-09-14T09:56:25.616Z,78.69
2017-09-14T09:57:25.648Z,79.74
2017-09-14T09:58:25.668Z,79.36
2017-09-14T09:59:25.688Z,80.32
2017-09-14T10:00:25.712Z,80.6
2017-09-14T10:01:25.735Z,80.89
2017-09-14T10:02:25.771Z,81.18
2017-09-14T10:03:25.791Z,81.08
2017-09-14T10:05:25.836Z,81.56
2017-09-14T10:06:25.861Z,80.89
2017-09-14T10:07:25.892Z,81.18
2017-09-14T10:08:25.962Z,80.93
2017-09-14T10:09:25.613Z,80.35
2017-09-14T10:10:25.641Z,80.16
2017-09-14T10:11:40.591Z,79.93
2017-09-14T10:12:26.007Z,80.45
2017-09-14T10:13:25.714Z,79.68
2017-09-14T10:15:25.761Z,79.55
2017-09-14T10:16:26.091Z,79.36
2017-09-14T10:17:26.120Z,79.93
2017-09-14T10:18:25.827Z,80.45
2017-09-14T10:19:26.160Z,80.51
2017-09-14T10:20:26.178Z,81.08
2017-09-14T10:21:25.900Z,80.41
2017-09-14T10:22:26.237Z,80.41
2017-09-14T10:23:26.254Z,79.64
2017-09-14T10:24:26.275Z,79.07
2017-09-14T10:25:25.994Z,78.82
2017-09-14T10:26:40.945Z,79.11
2017-09-14T10:27:26.346Z,79.01
2017-09-14T10:28:26.066Z,78.88
2017-09-14T10:29:26.082Z,78.44
2017-09-14T10:30:26.417Z,78.63
2017-09-14T10:31:26.437Z,78.63
2017-09-14T10:32:26.460Z,78.05
2017-09-14T10:33:26.498Z,78.92
2017-09-14T10:34:26.520Z,79.11
2017-09-14T10:35:26.533Z,79.01
2017-09-14T10:36:26.566Z,79.01
2017-09-14T10:37:26.586Z,79.05
2017-09-14T10:38:26.303Z,77.61
2017-09-14T10:39:26.632Z,76.75
2017-09-14T10:41:26.684Z,76.65
2017-09-14T10:42:26.704Z,76.65
2017-09-14T10:43:26.729Z,77.51
2017-09-14T10:44:26.744Z,77.8
2017-09-14T10:45:26.773Z,78.77
2017-09-14T10:46:26.789Z,77.67
2017-09-14T10:47:26.811Z,77.51
2017-09-14T10:49:26.865Z,77.51
2017-09-14T10:50:26.896Z,77.61
2017-09-14T10:51:26.906Z,77.9
2017-09-14T10:52:26.941Z,76.94
2017-09-14T10:53:26.957Z,76.79
2017-09-14T10:54:26.977Z,76.12
2017-09-14T10:55:27.013Z,75.25
2017-09-14T10:56:26.718Z,75.45
2017-09-14T10:57:27.048Z,75.1
2017-09-14T10:58:41.696Z,75.63
2017-09-14T10:59:27.110Z,75.29
2017-09-14T11:00:26.811Z,75.48
2017-09-14T11:01:27.150Z,75.45
2017-09-14T11:02:27.182Z,75.92
2017-09-14T11:03:27.191Z,75.54
2017-09-14T11:04:26.916Z,75.54
2017-09-14T11:05:26.934Z,76.5
2017-09-14T11:06:26.957Z,75.87
2017-09-14T11:07:26.983Z,76.12
2017-09-14T11:08:27.321Z,76.98
2017-09-14T11:09:27.038Z,76.79
2017-09-14T11:10:27.372Z,77.56
2017-09-14T11:11:27.383Z,81.4
2017-09-14T11:12:27.413Z,81.74
2017-09-14T11:13:27.432Z,82.94
2017-09-14T11:14:42.078Z,82.42
2017-09-14T11:15:27.492Z,83.15
2017-09-14T11:16:27.507Z,83.92
2017-09-14T11:17:27.538Z,84.58
2017-09-14T11:18:27.564Z,84.39
2017-09-14T11:19:27.582Z,85.06
2017-09-14T11:20:27.293Z,83.72
2017-09-14T11:21:27.318Z,83.53
2017-09-14T11:22:27.659Z,83.15
2017-09-14T11:23:27.670Z,82.76
2017-09-14T11:24:27.704Z,81.43
2017-09-14T11:25:27.725Z,82
2017-09-14T11:27:27.766Z,81.33
2017-09-14T11:28:27.795Z,80.41
2017-09-14T11:30:42.455Z,80.76
2017-09-14T11:31:27.868Z,81.13
2017-09-14T11:32:27.885Z,81.13
2017-09-14T11:33:27.919Z,81.62
2017-09-14T11:34:27.930Z,81.33
2017-09-14T11:35:27.952Z,81.71
2017-09-14T11:36:27.980Z,81.9
2017-09-14T11:37:27.696Z,82.67
2017-09-14T11:38:27.716Z,82.38
2017-09-14T11:40:28.071Z,82.76
2017-09-14T11:41:28.100Z,82.86
2017-09-14T11:42:28.120Z,84.26
2017-09-14T11:43:28.137Z,86.17
2017-09-14T11:44:27.858Z,86.65
2017-09-14T11:45:28.193Z,88.13
2017-09-14T11:46:42.832Z,89.95
2017-09-14T11:47:28.244Z,90.2
2017-09-14T11:49:28.282Z,90.87
2017-09-14T11:50:28.312Z,90.87
2017-09-14T11:51:28.329Z,91.73
2017-09-14T11:52:28.354Z,92.78
2017-09-14T11:53:28.064Z,92.21
2017-09-14T11:54:28.083Z,92.49
2017-09-14T11:55:28.418Z,91.92
2017-09-14T11:58:28.182Z,93.74
2017-09-14T11:59:28.520Z,94.84
2017-09-14T12:00:28.539Z,94.45
2017-09-14T12:01:43.179Z,93.5
2017-09-14T12:02:28.592Z,92.87
2017-09-14T12:03:28.609Z,92.3
2017-09-14T12:04:28.636Z,91.77
2017-09-14T12:05:28.646Z,90.43
2017-09-14T12:06:28.675Z,88.8
2017-09-14T12:07:28.706Z,89.47
2017-09-14T12:08:28.720Z,90.05
2017-09-14T12:09:28.752Z,88.65
2017-09-14T12:10:28.775Z,89.23
2017-09-14T12:11:28.791Z,87.98
2017-09-14T12:12:28.508Z,88.56
2017-09-14T12:13:28.844Z,88.46
2017-09-14T12:14:28.872Z,89.23
2017-09-14T12:15:28.892Z,88.08
2017-09-14T12:16:28.909Z,88.12
2017-09-14T12:17:28.625Z,87.55
2017-09-14T12:18:28.651Z,87.16
2017-09-14T12:20:29.004Z,87.59
2017-09-14T12:21:29.074Z,86.54
2017-09-14T12:22:29.047Z,86.34
2017-09-14T12:23:29.079Z,86.34
2017-09-14T12:24:29.109Z,86.72
2017-09-14T12:25:29.120Z,86.44
2017-09-14T12:26:29.141Z,85.77
2017-09-14T12:27:29.174Z,85.67
2017-09-14T12:29:29.227Z,83.98
2017-09-14T12:30:29.242Z,84.27
2017-09-14T12:31:29.266Z,84.42
2017-09-14T12:32:28.978Z,83.51
2017-09-14T12:33:43.935Z,83.6
2017-09-14T12:34:29.345Z,82.84
2017-09-14T12:35:29.364Z,82.3
2017-09-14T12:36:29.412Z,82.16
2017-09-14T12:37:29.405Z,82.54
2017-09-14T12:38:29.428Z,82.54
2017-09-14T12:40:29.478Z,81.92
2017-09-14T12:41:29.509Z,81.49
2017-09-14T12:42:29.529Z,81.4
2017-09-14T12:43:29.555Z,80.91
2017-09-14T12:45:29.599Z,78.99
2017-09-14T12:46:29.648Z,80.05
2017-09-14T12:47:29.346Z,79.67
2017-09-14T12:48:29.685Z,79.47
2017-09-14T12:49:44.318Z,78.9
2017-09-14T12:50:29.732Z,78.9
2017-09-14T12:51:29.747Z,78.42
2017-09-14T12:52:29.777Z,76.98
2017-09-14T12:53:29.791Z,76.82
2017-09-14T12:54:29.824Z,77.75
2017-09-14T12:55:29.839Z,76.64
2017-09-14T12:56:29.865Z,76.21
2017-09-14T12:57:29.895Z,75.38
2017-09-14T12:58:29.914Z,75.25
2017-09-14T12:59:29.940Z,75.35
2017-09-14T13:00:29.960Z,74.87
2017-09-14T13:01:29.984Z,75.15
2017-09-14T13:02:29.700Z,75.54
2017-09-14T13:04:29.750Z,75.25
2017-09-14T13:05:44.704Z,74.48
2017-09-14T13:06:30.104Z,74.29
2017-09-14T13:07:30.133Z,74.68
2017-09-14T13:08:30.161Z,73.81
2017-09-14T13:09:30.184Z,74.48
2017-09-14T13:10:30.198Z,75.45
2017-09-14T13:11:30.238Z,75.25
2017-09-14T13:12:30.252Z,75.7
2017-09-14T13:13:30.275Z,76.46
2017-09-14T13:14:30.300Z,76.46
2017-09-14T13:15:30.330Z,76.94
2017-09-14T13:16:30.351Z,76.65
2017-09-14T13:17:30.376Z,76.46
2017-09-14T13:18:30.401Z,76.56
2017-09-14T13:19:30.423Z,75.54
2017-09-14T13:20:30.453Z,75.54
2017-09-14T13:21:45.088Z,76.12
2017-09-14T13:22:30.179Z,74.96
2017-09-14T13:23:30.517Z,75.73
2017-09-14T13:24:30.546Z,76.46
2017-09-14T13:25:30.568Z,75.89
2017-09-14T13:26:30.582Z,76.65
2017-09-14T13:27:30.303Z,77.13
2017-09-14T13:28:30.639Z,77.86
2017-09-14T13:29:30.665Z,78.09
2017-09-14T13:30:30.695Z,77.71
2017-09-14T13:31:30.711Z,77.04
2017-09-14T13:32:30.725Z,78.34
2017-09-14T13:33:30.761Z,77.61
2017-09-14T13:34:30.785Z,77.42
2017-09-14T13:35:30.807Z,76.94
2017-09-14T13:36:45.447Z,76.94
2017-09-14T13:37:30.858Z,77.51
2017-09-14T13:38:30.876Z,77.71